sensor_id;sensor_type;location;lat;lon;timestamp;pressure;altitude;pressure_sealevel;temperature;humidity
59789;BME280;47353;51.614;5.530;2023-05-21T00:02:13;101738.69;;;13.27;77.35
59789;BME280;47353;51.614;5.530;2023-05-21T00:04:42;101737.28;;;13.19;78.11
59789;BME280;47353;51.614;5.530;2023-05-21T00:07:08;101730.88;;;13.19;77.84
59789;BME280;47353;51.614;5.530;2023-05-21T00:09:34;101732.22;;;13.11;78.44
59789;BME280;47353;51.614;5.530;2023-05-21T00:12:00;101732.19;;;13.06;78.67
59789;BME280;47353;51.614;5.530;2023-05-21T00:14:25;101731.66;;;13.04;78.44
59789;BME280;47353;51.614;5.530;2023-05-21T00:16:51;101731.09;;;13.02;78.80
59789;BME280;47353;51.614;5.530;2023-05-21T00:19:16;101731.03;;;12.97;79.06
59789;BME280;47353;51.614;5.530;2023-05-21T00:21:42;101728.75;;;12.89;79.72
59789;BME280;47353;51.614;5.530;2023-05-21T00:24:10;101718.47;;;12.85;80.28
59789;BME280;47353;51.614;5.530;2023-05-21T00:26:35;101720.13;;;12.81;80.33
59789;BME280;47353;51.614;5.530;2023-05-21T00:29:01;101720.34;;;12.74;80.87
59789;BME280;47353;51.614;5.530;2023-05-21T00:31:26;101709.50;;;12.73;81.16
59789;BME280;47353;51.614;5.530;2023-05-21T00:33:51;101704.75;;;12.63;81.38
59789;BME280;47353;51.614;5.530;2023-05-21T00:36:17;101712.53;;;12.61;81.79
59789;BME280;47353;51.614;5.530;2023-05-21T00:38:42;101720.81;;;12.56;82.45
59789;BME280;47353;51.614;5.530;2023-05-21T00:41:11;101708.31;;;12.54;82.84
59789;BME280;47353;51.614;5.530;2023-05-21T00:43:37;101712.72;;;12.50;82.94
59789;BME280;47353;51.614;5.530;2023-05-21T00:46:07;101709.66;;;12.51;83.25
59789;BME280;47353;51.614;5.530;2023-05-21T00:48:33;101705.19;;;12.45;83.54
59789;BME280;47353;51.614;5.530;2023-05-21T00:50:59;101701.03;;;12.43;83.75
59789;BME280;47353;51.614;5.530;2023-05-21T00:53:24;101698.47;;;12.36;84.06
59789;BME280;47353;51.614;5.530;2023-05-21T00:55:51;101712.38;;;12.36;84.16
59789;BME280;47353;51.614;5.530;2023-05-21T00:58:17;101704.31;;;12.35;84.65
59789;BME280;47353;51.614;5.530;2023-05-21T01:00:43;101707.88;;;12.30;84.69
59789;BME280;47353;51.614;5.530;2023-05-21T01:03:11;101710.66;;;12.30;85.04
59789;BME280;47353;51.614;5.530;2023-05-21T01:05:36;101704.47;;;12.23;85.22
59789;BME280;47353;51.614;5.530;2023-05-21T01:08:02;101710.31;;;12.22;85.61
59789;BME280;47353;51.614;5.530;2023-05-21T01:10:28;101702.22;;;12.15;85.68
59789;BME280;47353;51.614;5.530;2023-05-21T01:12:55;101704.69;;;12.12;86.37
59789;BME280;47353;51.614;5.530;2023-05-21T01:15:21;101704.69;;;12.12;86.59
59789;BME280;47353;51.614;5.530;2023-05-21T01:17:47;101695.53;;;12.11;86.82
59789;BME280;47353;51.614;5.530;2023-05-21T01:20:18;101700.53;;;12.14;87.10
59789;BME280;47353;51.614;5.530;2023-05-21T01:22:56;101700.81;;;12.13;86.77
59789;BME280;47353;51.614;5.530;2023-05-21T01:25:22;101698.59;;;12.15;86.63
59789;BME280;47353;51.614;5.530;2023-05-21T01:27:48;101694.69;;;12.11;87.16
59789;BME280;47353;51.614;5.530;2023-05-21T01:30:15;101695.53;;;12.11;87.32
59789;BME280;47353;51.614;5.530;2023-05-21T01:35:22;101686.34;;;12.11;87.25
59789;BME280;47353;51.614;5.530;2023-05-21T01:40:34;101693.38;;;12.18;84.37
59789;BME280;47353;51.614;5.530;2023-05-21T01:43:04;101686.72;;;12.19;87.05
59789;BME280;47353;51.614;5.530;2023-05-21T01:45:32;101683.41;;;12.22;87.43
59789;BME280;47353;51.614;5.530;2023-05-21T01:47:58;101682.84;;;12.25;87.33
59789;BME280;47353;51.614;5.530;2023-05-21T01:50:24;101687.56;;;12.25;87.45
59789;BME280;47353;51.614;5.530;2023-05-21T01:52:51;101685.38;;;12.27;88.03
59789;BME280;47353;51.614;5.530;2023-05-21T01:55:18;101686.22;;;12.32;87.84
59789;BME280;47353;51.614;5.530;2023-05-21T01:57:52;101684.34;;;12.38;87.51
59789;BME280;47353;51.614;5.530;2023-05-21T02:00:21;101686.28;;;12.42;87.63
59789;BME280;47353;51.614;5.530;2023-05-21T02:02:47;101673.00;;;12.44;87.70
59789;BME280;47353;51.614;5.530;2023-05-21T02:05:12;101687.47;;;12.51;87.67
59789;BME280;47353;51.614;5.530;2023-05-21T02:07:38;101686.09;;;12.59;87.70
59789;BME280;47353;51.614;5.530;2023-05-21T02:10:05;101677.50;;;12.60;87.69
59789;BME280;47353;51.614;5.530;2023-05-21T02:12:30;101685.03;;;12.65;86.97
59789;BME280;47353;51.614;5.530;2023-05-21T02:14:56;101678.09;;;12.67;87.50
59789;BME280;47353;51.614;5.530;2023-05-21T02:17:21;101676.16;;;12.68;87.23
59789;BME280;47353;51.614;5.530;2023-05-21T02:19:48;101674.78;;;12.70;87.40
59789;BME280;47353;51.614;5.530;2023-05-21T02:22:14;101676.75;;;12.75;87.11
59789;BME280;47353;51.614;5.530;2023-05-21T02:24:40;101675.38;;;12.77;86.84
59789;BME280;47353;51.614;5.530;2023-05-21T02:27:05;101677.59;;;12.80;86.87
59789;BME280;47353;51.614;5.530;2023-05-21T02:29:31;101673.19;;;12.84;86.71
59789;BME280;47353;51.614;5.530;2023-05-21T02:31:57;101669.88;;;12.87;86.65
59789;BME280;47353;51.614;5.530;2023-05-21T02:34:22;101673.47;;;12.88;86.60
59789;BME280;47353;51.614;5.530;2023-05-21T02:36:49;101669.59;;;12.89;86.58
59789;BME280;47353;51.614;5.530;2023-05-21T02:39:18;101674.34;;;12.93;86.99
59789;BME280;47353;51.614;5.530;2023-05-21T02:41:44;101675.44;;;12.97;86.89
59789;BME280;47353;51.614;5.530;2023-05-21T02:44:11;101676.28;;;12.98;86.88
59789;BME280;47353;51.614;5.530;2023-05-21T02:46:36;101673.56;;;13.03;86.62
59789;BME280;47353;51.614;5.530;2023-05-21T02:49:02;101667.47;;;13.06;86.55
59789;BME280;47353;51.614;5.530;2023-05-21T02:51:27;101661.06;;;13.05;86.30
59789;BME280;47353;51.614;5.530;2023-05-21T02:53:52;101657.44;;;13.05;86.05
59789;BME280;47353;51.614;5.530;2023-05-21T02:56:18;101670.53;;;13.14;86.45
59789;BME280;47353;51.614;5.530;2023-05-21T02:58:44;101660.25;;;13.15;86.43
59789;BME280;47353;51.614;5.530;2023-05-21T03:01:09;101661.63;;;13.17;86.36
59789;BME280;47353;51.614;5.530;2023-05-21T03:03:35;101659.72;;;13.18;86.59
59789;BME280;47353;51.614;5.530;2023-05-21T03:06:00;101655.00;;;13.18;86.41
59789;BME280;47353;51.614;5.530;2023-05-21T03:08:26;101653.03;;;13.19;86.18
59789;BME280;47353;51.614;5.530;2023-05-21T03:10:51;101656.38;;;13.21;85.99
59789;BME280;47353;51.614;5.530;2023-05-21T03:13:16;101656.38;;;13.21;86.42
59789;BME280;47353;51.614;5.530;2023-05-21T03:15:42;101647.75;;;13.17;86.66
59789;BME280;47353;51.614;5.530;2023-05-21T03:18:08;101656.66;;;13.19;86.31
59789;BME280;47353;51.614;5.530;2023-05-21T03:20:34;101651.94;;;13.20;86.71
59789;BME280;47353;51.614;5.530;2023-05-21T03:22:59;101654.44;;;13.21;86.34
59789;BME280;47353;51.614;5.530;2023-05-21T03:25:28;101649.69;;;13.22;86.71
59789;BME280;47353;51.614;5.530;2023-05-21T03:27:54;101642.47;;;13.21;86.59
59789;BME280;47353;51.614;5.530;2023-05-21T03:30:19;101642.47;;;13.21;86.60
59789;BME280;47353;51.614;5.530;2023-05-21T03:32:45;101633.56;;;13.19;86.98
59789;BME280;47353;51.614;5.530;2023-05-21T03:35:11;101637.19;;;13.14;87.19
59789;BME280;47353;51.614;5.530;2023-05-21T03:37:37;101643.56;;;13.15;87.23
59789;BME280;47353;51.614;5.530;2023-05-21T03:40:03;101638.84;;;13.10;86.95
59789;BME280;47353;51.614;5.530;2023-05-21T03:42:28;101639.66;;;13.06;87.32
59789;BME280;47353;51.614;5.530;2023-05-21T03:44:54;101636.31;;;13.04;87.14
59789;BME280;47353;51.614;5.530;2023-05-21T03:47:20;101638.81;;;13.00;87.90
59789;BME280;47353;51.614;5.530;2023-05-21T03:49:45;101644.06;;;12.97;87.78
59789;BME280;47353;51.614;5.530;2023-05-21T03:52:11;101650.44;;;12.97;87.93
59789;BME280;47353;51.614;5.530;2023-05-21T03:54:36;101649.34;;;12.98;88.31
59789;BME280;47353;51.614;5.530;2023-05-21T03:57:01;101648.22;;;12.99;88.68
59789;BME280;47353;51.614;5.530;2023-05-21T03:59:27;101642.09;;;12.97;88.42
59789;BME280;47353;51.614;5.530;2023-05-21T04:01:52;101643.22;;;12.96;88.42
59789;BME280;47353;51.614;5.530;2023-05-21T04:04:17;101654.59;;;12.95;88.21
59789;BME280;47353;51.614;5.530;2023-05-21T04:06:43;101645.41;;;12.94;88.82
59789;BME280;47353;51.614;5.530;2023-05-21T04:09:08;101640.13;;;12.93;88.95
59789;BME280;47353;51.614;5.530;2023-05-21T04:11:34;101640.69;;;12.90;88.73
59789;BME280;47353;51.614;5.530;2023-05-21T04:13:59;101649.28;;;12.88;89.19
59789;BME280;47353;51.614;5.530;2023-05-21T04:16:25;101657.59;;;12.83;89.53
59789;BME280;47353;51.614;5.530;2023-05-21T04:18:50;101646.22;;;12.80;89.39
59789;BME280;47353;51.614;5.530;2023-05-21T04:21:16;101647.31;;;12.79;89.78
59789;BME280;47353;51.614;5.530;2023-05-21T04:23:42;101647.03;;;12.80;90.16
59789;BME280;47353;51.614;5.530;2023-05-21T04:26:07;101643.72;;;12.78;90.10
59789;BME280;47353;51.614;5.530;2023-05-21T04:28:33;101648.16;;;12.79;90.50
59789;BME280;47353;51.614;5.530;2023-05-21T04:30:59;101649.00;;;12.80;90.61
59789;BME280;47353;51.614;5.530;2023-05-21T04:33:25;101645.94;;;12.81;90.77
59789;BME280;47353;51.614;5.530;2023-05-21T04:35:51;101645.38;;;12.79;90.52
59789;BME280;47353;51.614;5.530;2023-05-21T04:38:17;101657.91;;;12.87;90.33
59789;BME280;47353;51.614;5.530;2023-05-21T04:40:49;101647.38;;;12.89;90.47
59789;BME280;47353;51.614;5.530;2023-05-21T04:43:18;101655.97;;;12.87;90.38
59789;BME280;47353;51.614;5.530;2023-05-21T04:45:53;101654.31;;;12.91;90.92
59789;BME280;47353;51.614;5.530;2023-05-21T04:48:19;101655.44;;;12.95;90.64
59789;BME280;47353;51.614;5.530;2023-05-21T04:50:45;101652.41;;;12.97;90.63
59789;BME280;47353;51.614;5.530;2023-05-21T04:53:10;101657.44;;;13.00;90.63
59789;BME280;47353;51.614;5.530;2023-05-21T04:55:36;101656.03;;;13.02;90.55
59789;BME280;47353;51.614;5.530;2023-05-21T04:58:05;101660.22;;;13.05;90.64
59789;BME280;47353;51.614;5.530;2023-05-21T05:00:32;101665.78;;;13.10;91.02
59789;BME280;47353;51.614;5.530;2023-05-21T05:02:57;101654.69;;;13.10;90.64
59789;BME280;47353;51.614;5.530;2023-05-21T05:05:22;101661.09;;;13.15;90.67
59789;BME280;47353;51.614;5.530;2023-05-21T05:07:48;101663.59;;;13.17;90.59
59789;BME280;47353;51.614;5.530;2023-05-21T05:10:13;101648.59;;;13.18;90.14
59789;BME280;47353;51.614;5.530;2023-05-21T05:12:39;101665.28;;;13.23;89.94
59789;BME280;47353;51.614;5.530;2023-05-21T05:15:04;101657.22;;;13.26;89.80
59789;BME280;47353;51.614;5.530;2023-05-21T05:17:30;101651.09;;;13.29;89.68
59789;BME280;47353;51.614;5.530;2023-05-21T05:19:56;101650.84;;;13.36;89.79
59789;BME280;47353;51.614;5.530;2023-05-21T05:22:21;101652.78;;;13.40;89.43
59789;BME280;47353;51.614;5.530;2023-05-21T05:24:46;101649.47;;;13.49;89.44
59789;BME280;47353;51.614;5.530;2023-05-21T05:27:12;101653.91;;;13.55;88.98
59789;BME280;47353;51.614;5.530;2023-05-21T05:29:37;101642.25;;;13.63;89.26
59789;BME280;47353;51.614;5.530;2023-05-21T05:32:03;101649.47;;;13.69;88.55
59789;BME280;47353;51.614;5.530;2023-05-21T05:34:28;101648.09;;;13.76;88.22
59789;BME280;47353;51.614;5.530;2023-05-21T05:36:53;101652.53;;;13.87;88.64
59789;BME280;47353;51.614;5.530;2023-05-21T05:39:21;101668.97;;;13.94;87.97
59789;BME280;47353;51.614;5.530;2023-05-21T05:41:46;101661.72;;;14.03;87.79
59789;BME280;47353;51.614;5.530;2023-05-21T05:44:12;101651.97;;;14.10;86.95
59789;BME280;47353;51.614;5.530;2023-05-21T05:46:37;101656.41;;;14.21;86.58
59789;BME280;47353;51.614;5.530;2023-05-21T05:49:02;101654.16;;;14.33;86.53
59789;BME280;47353;51.614;5.530;2023-05-21T05:51:28;101656.38;;;14.41;85.84
59789;BME280;47353;51.614;5.530;2023-05-21T05:53:54;101656.34;;;14.51;86.06
59789;BME280;47353;51.614;5.530;2023-05-21T05:56:19;101652.13;;;14.64;85.23
59789;BME280;47353;51.614;5.530;2023-05-21T05:58:45;101655.19;;;14.72;84.33
59789;BME280;47353;51.614;5.530;2023-05-21T06:01:11;101657.91;;;14.82;84.40
59789;BME280;47353;51.614;5.530;2023-05-21T06:03:37;101637.00;;;14.85;83.86
59789;BME280;47353;51.614;5.530;2023-05-21T06:06:02;101664.16;;;15.13;83.73
59789;BME280;47353;51.614;5.530;2023-05-21T06:08:28;101662.69;;;15.26;83.03
59789;BME280;47353;51.614;5.530;2023-05-21T06:10:53;101660.97;;;15.40;82.90
59789;BME280;47353;51.614;5.530;2023-05-21T06:13:19;101663.13;;;15.53;81.33
59789;BME280;47353;51.614;5.530;2023-05-21T06:15:44;101667.75;;;15.67;81.68
59789;BME280;47353;51.614;5.530;2023-05-21T06:18:10;101666.00;;;15.76;79.91
59789;BME280;47353;51.614;5.530;2023-05-21T06:20:35;101662.22;;;15.96;80.19
59789;BME280;47353;51.614;5.530;2023-05-21T06:23:01;101659.31;;;16.06;78.51
59789;BME280;47353;51.614;5.530;2023-05-21T06:25:26;101653.88;;;16.19;78.18
59789;BME280;47353;51.614;5.530;2023-05-21T06:27:52;101654.97;;;16.23;76.84
59789;BME280;47353;51.614;5.530;2023-05-21T06:30:17;101655.34;;;16.40;77.10
59789;BME280;47353;51.614;5.530;2023-05-21T06:32:43;101658.28;;;16.54;77.44
59789;BME280;47353;51.614;5.530;2023-05-21T06:35:08;101657.50;;;16.72;75.81
59789;BME280;47353;51.614;5.530;2023-05-21T06:37:34;101664.25;;;16.95;75.10
59789;BME280;47353;51.614;5.530;2023-05-21T06:39:59;101662.44;;;17.04;73.63
59789;BME280;47353;51.614;5.530;2023-05-21T06:42:25;101646.88;;;17.16;72.96
59789;BME280;47353;51.614;5.530;2023-05-21T06:44:50;101649.69;;;17.35;73.47
59789;BME280;47353;51.614;5.530;2023-05-21T06:47:15;101657.09;;;17.44;72.44
59789;BME280;47353;51.614;5.530;2023-05-21T06:49:41;101656.22;;;17.49;71.48
59789;BME280;47353;51.614;5.530;2023-05-21T06:52:06;101659.16;;;17.57;72.03
59789;BME280;47353;51.614;5.530;2023-05-21T06:54:32;101653.31;;;17.72;72.06
59789;BME280;47353;51.614;5.530;2023-05-21T06:56:57;101653.00;;;17.74;71.04
59789;BME280;47353;51.614;5.530;2023-05-21T06:59:23;101651.97;;;18.02;70.55
59789;BME280;47353;51.614;5.530;2023-05-21T07:01:48;101658.38;;;18.35;69.23
59789;BME280;47353;51.614;5.530;2023-05-21T07:04:13;101647.22;;;18.62;67.51
59789;BME280;47353;51.614;5.530;2023-05-21T07:06:39;101660.41;;;18.75;65.54
59789;BME280;47353;51.614;5.530;2023-05-21T07:09:05;101658.47;;;18.75;65.09
59789;BME280;47353;51.614;5.530;2023-05-21T07:11:31;101647.25;;;18.75;65.68
59789;BME280;47353;51.614;5.530;2023-05-21T07:13:57;101649.69;;;19.04;66.11
59789;BME280;47353;51.614;5.530;2023-05-21T07:16:26;101640.75;;;19.15;65.34
59789;BME280;47353;51.614;5.530;2023-05-21T07:18:51;101637.84;;;19.56;64.70
59789;BME280;47353;51.614;5.530;2023-05-21T07:21:17;101640.53;;;19.61;62.57
59789;BME280;47353;51.614;5.530;2023-05-21T07:23:42;101634.66;;;19.71;62.78
59789;BME280;47353;51.614;5.530;2023-05-21T07:26:09;101641.44;;;19.70;61.32
59789;BME280;47353;51.614;5.530;2023-05-21T07:28:34;101637.06;;;20.08;61.59
59789;BME280;47353;51.614;5.530;2023-05-21T07:30:59;101636.22;;;20.30;61.00
59789;BME280;47353;51.614;5.530;2023-05-21T07:33:25;101632.97;;;20.36;60.52
59789;BME280;47353;51.614;5.530;2023-05-21T07:35:51;101634.44;;;20.64;59.76
59789;BME280;47353;51.614;5.530;2023-05-21T07:38:16;101631.88;;;20.93;60.77
59789;BME280;47353;51.614;5.530;2023-05-21T07:40:41;101631.09;;;21.10;58.32
59789;BME280;47353;51.614;5.530;2023-05-21T07:43:07;101634.63;;;21.32;57.51
59789;BME280;47353;51.614;5.530;2023-05-21T07:45:32;101638.13;;;21.64;57.92
59789;BME280;47353;51.614;5.530;2023-05-21T07:47:58;101640.31;;;21.84;56.29
59789;BME280;47353;51.614;5.530;2023-05-21T07:50:24;101644.22;;;22.17;55.20
59789;BME280;47353;51.614;5.530;2023-05-21T07:52:49;101638.00;;;22.49;53.86
59789;BME280;47353;51.614;5.530;2023-05-21T07:55:15;101631.34;;;22.91;52.26
59789;BME280;47353;51.614;5.530;2023-05-21T07:57:40;101634.34;;;22.94;52.67
59789;BME280;47353;51.614;5.530;2023-05-21T08:00:06;101641.44;;;23.00;51.06
59789;BME280;47353;51.614;5.530;2023-05-21T08:02:37;101646.16;;;23.87;48.63
59789;BME280;47353;51.614;5.530;2023-05-21T08:05:02;101645.63;;;24.38;49.85
59789;BME280;47353;51.614;5.530;2023-05-21T08:07:28;101637.09;;;24.83;46.55
59789;BME280;47353;51.614;5.530;2023-05-21T08:09:53;101634.16;;;25.40;45.72
59789;BME280;47353;51.614;5.530;2023-05-21T08:12:18;101631.75;;;25.54;44.27
59789;BME280;47353;51.614;5.530;2023-05-21T08:14:44;101639.75;;;25.91;44.17
59789;BME280;47353;51.614;5.530;2023-05-21T08:17:09;101637.09;;;25.83;42.25
59789;BME280;47353;51.614;5.530;2023-05-21T08:19:38;101635.41;;;26.22;43.80
59789;BME280;47353;51.614;5.530;2023-05-21T08:22:04;101640.03;;;26.57;41.74
59789;BME280;47353;51.614;5.530;2023-05-21T08:24:31;101645.09;;;26.79;40.14
59789;BME280;47353;51.614;5.530;2023-05-21T08:26:56;101634.66;;;26.99;41.15
59789;BME280;47353;51.614;5.530;2023-05-21T08:29:21;101642.66;;;27.43;39.45
59789;BME280;47353;51.614;5.530;2023-05-21T08:31:47;101633.91;;;27.71;39.30
59789;BME280;47353;51.614;5.530;2023-05-21T08:34:12;101632.25;;;27.70;38.48
59789;BME280;47353;51.614;5.530;2023-05-21T08:36:38;101620.38;;;27.84;38.08
59789;BME280;47353;51.614;5.530;2023-05-21T08:39:07;101626.44;;;28.01;38.51
59789;BME280;47353;51.614;5.530;2023-05-21T08:41:34;101631.47;;;28.08;38.62
59789;BME280;47353;51.614;5.530;2023-05-21T08:44:00;101622.91;;;28.68;36.62
59789;BME280;47353;51.614;5.530;2023-05-21T08:46:31;101620.50;;;28.96;36.77
59789;BME280;47353;51.614;5.530;2023-05-21T08:48:57;101620.66;;;29.30;35.71
59789;BME280;47353;51.614;5.530;2023-05-21T08:51:23;101621.53;;;29.07;35.65
59789;BME280;47353;51.614;5.530;2023-05-21T08:53:49;101620.63;;;29.03;35.55
59789;BME280;47353;51.614;5.530;2023-05-21T08:56:16;101610.22;;;29.67;35.27
59789;BME280;47353;51.614;5.530;2023-05-21T08:58:45;101618.38;;;29.68;34.93
59789;BME280;47353;51.614;5.530;2023-05-21T09:01:11;101612.91;;;29.86;33.03
59789;BME280;47353;51.614;5.530;2023-05-21T09:03:38;101611.06;;;30.37;33.80
59789;BME280;47353;51.614;5.530;2023-05-21T09:06:05;101613.13;;;30.77;32.18
59789;BME280;47353;51.614;5.530;2023-05-21T09:08:37;101610.59;;;31.22;32.51
59789;BME280;47353;51.614;5.530;2023-05-21T09:11:07;101610.31;;;31.38;31.38
59789;BME280;47353;51.614;5.530;2023-05-21T09:13:33;101602.19;;;31.47;31.08
59789;BME280;47353;51.614;5.530;2023-05-21T09:15:59;101604.34;;;31.67;32.25
59789;BME280;47353;51.614;5.530;2023-05-21T09:18:25;101602.84;;;31.87;30.06
59789;BME280;47353;51.614;5.530;2023-05-21T09:20:53;101604.59;;;32.27;28.98
59789;BME280;47353;51.614;5.530;2023-05-21T09:23:20;101609.16;;;32.56;29.32
59789;BME280;47353;51.614;5.530;2023-05-21T09:25:47;101600.97;;;32.79;28.89
59789;BME280;47353;51.614;5.530;2023-05-21T09:28:14;101601.38;;;32.46;29.78
59789;BME280;47353;51.614;5.530;2023-05-21T09:30:47;101598.94;;;32.48;30.27
59789;BME280;47353;51.614;5.530;2023-05-21T09:33:34;101604.63;;;33.57;30.91
59789;BME280;47353;51.614;5.530;2023-05-21T09:35:58;101604.25;;;32.53;29.77
59789;BME280;47353;51.614;5.530;2023-05-21T09:38:24;101602.50;;;32.03;30.38
59789;BME280;47353;51.614;5.530;2023-05-21T09:40:50;101604.41;;;31.78;31.27
59789;BME280;47353;51.614;5.530;2023-05-21T09:43:20;101604.06;;;31.83;30.13
59789;BME280;47353;51.614;5.530;2023-05-21T09:45:58;101601.88;;;31.62;31.21
59789;BME280;47353;51.614;5.530;2023-05-21T09:48:34;101597.53;;;31.21;31.98
59789;BME280;47353;51.614;5.530;2023-05-21T09:51:16;101589.88;;;31.32;32.16
59789;BME280;47353;51.614;5.530;2023-05-21T09:53:53;101581.72;;;32.41;30.96
59789;BME280;47353;51.614;5.530;2023-05-21T09:56:24;101589.50;;;32.37;30.22
59789;BME280;47353;51.614;5.530;2023-05-21T09:58:52;101589.84;;;32.25;29.73
59789;BME280;47353;51.614;5.530;2023-05-21T10:01:19;101586.63;;;33.18;28.16
59789;BME280;47353;51.614;5.530;2023-05-21T10:03:49;101590.72;;;33.45;28.01
59789;BME280;47353;51.614;5.530;2023-05-21T10:06:17;101581.72;;;34.29;27.33
59789;BME280;47353;51.614;5.530;2023-05-21T10:08:44;101582.38;;;35.05;26.33
59789;BME280;47353;51.614;5.530;2023-05-21T10:11:12;101576.34;;;34.89;26.42
59789;BME280;47353;51.614;5.530;2023-05-21T10:13:42;101580.88;;;35.27;26.41
59789;BME280;47353;51.614;5.530;2023-05-21T10:16:09;101570.53;;;35.33;25.63
59789;BME280;47353;51.614;5.530;2023-05-21T10:18:36;101570.16;;;36.82;24.49
59789;BME280;47353;51.614;5.530;2023-05-21T10:21:03;101567.06;;;37.16;23.80
59789;BME280;47353;51.614;5.530;2023-05-21T10:23:29;101569.44;;;36.74;23.97
59789;BME280;47353;51.614;5.530;2023-05-21T10:25:55;101570.44;;;36.64;24.37
59789;BME280;47353;51.614;5.530;2023-05-21T10:28:21;101563.41;;;35.49;25.21
59789;BME280;47353;51.614;5.530;2023-05-21T10:30:46;101558.63;;;34.47;27.21
59789;BME280;47353;51.614;5.530;2023-05-21T10:33:14;101566.81;;;34.99;26.27
59789;BME280;47353;51.614;5.530;2023-05-21T10:35:41;101563.72;;;35.91;25.93
59789;BME280;47353;51.614;5.530;2023-05-21T10:38:08;101547.19;;;36.98;23.63
59789;BME280;47353;51.614;5.530;2023-05-21T10:40:34;101561.16;;;37.85;22.43
59789;BME280;47353;51.614;5.530;2023-05-21T10:56:29;101522.16;;;38.61;21.33
59789;BME280;47353;51.614;5.530;2023-05-21T11:01:48;101529.38;;;39.01;20.64
59789;BME280;47353;51.614;5.530;2023-05-21T11:04:20;101513.75;;;39.55;20.25
59789;BME280;47353;51.614;5.530;2023-05-21T11:06:46;101515.38;;;38.67;20.27
59789;BME280;47353;51.614;5.530;2023-05-21T11:09:15;101520.13;;;39.50;20.40
59789;BME280;47353;51.614;5.530;2023-05-21T11:11:51;101509.59;;;39.98;20.49
59789;BME280;47353;51.614;5.530;2023-05-21T11:14:38;101509.69;;;40.44;19.58
59789;BME280;47353;51.614;5.530;2023-05-21T11:20:03;101509.03;;;40.28;20.31
59789;BME280;47353;51.614;5.530;2023-05-21T11:22:29;101509.00;;;40.40;19.60
59789;BME280;47353;51.614;5.530;2023-05-21T11:25:00;101497.13;;;40.60;19.32
59789;BME280;47353;51.614;5.530;2023-05-21T11:27:37;101491.19;;;41.44;19.13
59789;BME280;47353;51.614;5.530;2023-05-21T11:30:04;101494.75;;;40.92;18.56
59789;BME280;47353;51.614;5.530;2023-05-21T11:32:30;101496.91;;;41.13;18.77
59789;BME280;47353;51.614;5.530;2023-05-21T11:34:59;101484.50;;;41.00;19.37
59789;BME280;47353;51.614;5.530;2023-05-21T11:37:27;101484.53;;;41.44;17.55
59789;BME280;47353;51.614;5.530;2023-05-21T11:39:56;101489.97;;;41.54;18.03
59789;BME280;47353;51.614;5.530;2023-05-21T11:42:32;101486.09;;;42.09;18.34
59789;BME280;47353;51.614;5.530;2023-05-21T11:44:58;101477.72;;;41.38;18.46
59789;BME280;47353;51.614;5.530;2023-05-21T11:47:26;101484.63;;;41.53;18.17
59789;BME280;47353;51.614;5.530;2023-05-21T11:49:53;101482.03;;;40.65;18.41
59789;BME280;47353;51.614;5.530;2023-05-21T11:52:18;101474.44;;;40.08;19.38
59789;BME280;47353;51.614;5.530;2023-05-21T11:54:49;101470.59;;;39.86;19.46
59789;BME280;47353;51.614;5.530;2023-05-21T11:57:16;101466.50;;;39.71;19.06
59789;BME280;47353;51.614;5.530;2023-05-21T11:59:44;101463.38;;;39.65;19.85
59789;BME280;47353;51.614;5.530;2023-05-21T12:02:13;101465.88;;;39.22;20.58
59789;BME280;47353;51.614;5.530;2023-05-21T12:04:40;101466.63;;;38.33;21.52
59789;BME280;47353;51.614;5.530;2023-05-21T12:07:07;101455.72;;;37.54;21.96
59789;BME280;47353;51.614;5.530;2023-05-21T12:12:09;101456.22;;;37.10;23.25
59789;BME280;47353;51.614;5.530;2023-05-21T12:14:36;101455.28;;;36.50;23.21
59789;BME280;47353;51.614;5.530;2023-05-21T12:17:05;101457.94;;;36.15;24.31
59789;BME280;47353;51.614;5.530;2023-05-21T12:19:36;101450.03;;;35.36;25.52
59789;BME280;47353;51.614;5.530;2023-05-21T12:22:08;101450.53;;;35.27;25.76
59789;BME280;47353;51.614;5.530;2023-05-21T12:24:35;101445.09;;;35.32;25.93
59789;BME280;47353;51.614;5.530;2023-05-21T12:27:02;101431.59;;;34.96;26.00
59789;BME280;47353;51.614;5.530;2023-05-21T12:29:37;101424.63;;;35.27;25.68
59789;BME280;47353;51.614;5.530;2023-05-21T12:32:05;101429.91;;;34.98;25.59
59789;BME280;47353;51.614;5.530;2023-05-21T12:34:48;101428.22;;;34.64;26.41
59789;BME280;47353;51.614;5.530;2023-05-21T12:37:19;101429.53;;;34.12;26.72
59789;BME280;47353;51.614;5.530;2023-05-21T12:39:47;101421.19;;;34.24;27.39
59789;BME280;47353;51.614;5.530;2023-05-21T12:42:13;101431.38;;;34.32;27.18
59789;BME280;47353;51.614;5.530;2023-05-21T12:44:42;101428.28;;;34.57;26.34
59789;BME280;47353;51.614;5.530;2023-05-21T12:47:09;101419.09;;;34.28;26.91
59789;BME280;47353;51.614;5.530;2023-05-21T12:49:38;101415.59;;;34.07;26.90
59789;BME280;47353;51.614;5.530;2023-05-21T12:52:08;101420.59;;;33.96;27.77
59789;BME280;47353;51.614;5.530;2023-05-21T12:54:35;101430.41;;;33.29;28.45
59789;BME280;47353;51.614;5.530;2023-05-21T12:57:09;101429.72;;;32.97;27.76
59789;BME280;47353;51.614;5.530;2023-05-21T12:59:56;101428.41;;;33.16;28.47
59789;BME280;47353;51.614;5.530;2023-05-21T13:02:34;101433.38;;;32.98;28.86
59789;BME280;47353;51.614;5.530;2023-05-21T13:05:04;101432.19;;;32.92;29.18
59789;BME280;47353;51.614;5.530;2023-05-21T13:07:32;101438.25;;;33.15;28.11
59789;BME280;47353;51.614;5.530;2023-05-21T13:09:58;101437.50;;;32.93;28.49
59789;BME280;47353;51.614;5.530;2023-05-21T13:12:26;101434.22;;;32.84;28.92
59789;BME280;47353;51.614;5.530;2023-05-21T13:14:53;101442.44;;;32.93;29.45
59789;BME280;47353;51.614;5.530;2023-05-21T13:17:19;101442.31;;;33.21;29.34